Time;durP1;ratioP1;P1;durP2;ratioP2;P2;SDS_P1;SDS_P2;PMS_P1;PMS_P2;Temp;Humidity;BMP_temperature;BMP_pressure;BME280_temperature;BME280_humidity;BME280_pressure;Samples;Min_cycle;Max_cycle;Signal;HPM_P1;HPM_P2
2021/11/25 00:00:51;;;;;;;0.00;0.00;;;5.00;64.30;;;;;;5053345;28;20033;-75
2021/11/25 00:03:17;;;;;;;0.00;0.00;;;5.00;64.50;;;;;;5053305;28;20525;-75
2021/11/25 00:05:43;;;;;;;0.00;0.00;;;4.90;64.60;;;;;;5052022;28;20064;-75
2021/11/25 00:08:09;;;;;;;0.00;0.00;;;4.80;64.70;;;;;;5051999;28;20028;-75
2021/11/25 00:10:36;;;;;;;0.00;0.00;;;4.80;64.80;;;;;;5033006;28;20526;-75
2021/11/25 00:13:03;;;;;;;0.00;0.00;;;4.70;64.90;;;;;;5033404;28;20064;-74
2021/11/25 00:15:28;;;;;;;0.00;0.00;;;4.70;65.00;;;;;;5033120;28;20021;-75
2021/11/25 00:17:54;;;;;;;0.00;0.00;;;4.60;65.10;;;;;;5033387;28;20040;-74
2021/11/25 00:20:21;;;;;;;0.00;0.00;;;4.60;65.60;;;;;;5033050;28;20088;-74
2021/11/25 00:22:47;;;;;;;0.00;0.00;;;4.60;66.00;;;;;;5035988;28;20018;-74
2021/11/25 00:25:13;;;;;;;0.00;0.00;;;4.50;66.00;;;;;;5054220;28;20029;-74
2021/11/25 00:27:40;;;;;;;0.00;0.00;;;4.50;65.90;;;;;;5056834;28;20075;-74
2021/11/25 00:30:07;;;;;;;0.00;0.00;;;4.40;65.90;;;;;;5057197;28;20051;-74
2021/11/25 00:32:32;;;;;;;0.00;0.00;;;4.40;65.90;;;;;;5056667;28;20068;-74
2021/11/25 00:34:58;;;;;;;0.00;0.00;;;4.30;66.00;;;;;;5056921;28;20053;-73
2021/11/25 00:37:24;;;;;;;0.00;0.00;;;4.30;66.10;;;;;;5056517;28;20045;-74
2021/11/25 00:39:49;;;;;;;0.00;0.00;;;4.30;66.20;;;;;;5056659;28;20036;-74
2021/11/25 00:42:15;;;;;;;0.00;0.00;;;4.30;66.20;;;;;;5056810;28;20387;-74
2021/11/25 00:44:41;;;;;;;0.00;0.00;;;4.20;66.10;;;;;;5056642;28;20021;-74
2021/11/25 00:47:07;;;;;;;0.00;0.00;;;4.20;66.20;;;;;;5057162;28;20087;-74
2021/11/25 00:49:33;;;;;;;0.00;0.00;;;4.20;66.30;;;;;;5055439;28;20025;-74
2021/11/25 00:51:59;;;;;;;0.00;0.00;;;4.20;66.70;;;;;;5056419;28;20037;-74
2021/11/25 00:54:24;;;;;;;0.00;0.00;;;4.10;66.70;;;;;;5054846;28;20025;-74
2021/11/25 00:56:50;;;;;;;0.00;0.00;;;4.10;66.70;;;;;;5056524;28;20032;-74
2021/11/25 00:59:16;;;;;;;0.00;0.00;;;4.00;66.70;;;;;;5056584;28;20028;-74
2021/11/25 01:01:42;;;;;;;0.00;0.00;;;4.00;66.80;;;;;;5056105;28;20033;-74
2021/11/25 01:04:07;;;;;;;0.00;0.00;;;4.00;67.30;;;;;;5056412;28;20031;-74
2021/11/25 01:06:33;;;;;;;0.00;0.00;;;4.00;67.30;;;;;;5056035;28;20032;-74
2021/11/25 01:08:59;;;;;;;0.00;0.00;;;3.90;67.20;;;;;;5056128;28;20406;-74
2021/11/25 01:11:25;;;;;;;0.00;0.00;;;3.90;67.10;;;;;;5056138;28;20033;-74
2021/11/25 01:13:52;;;;;;;0.00;0.00;;;3.90;67.10;;;;;;5056274;28;20079;-74
2021/11/25 01:16:19;;;;;;;0.00;0.00;;;3.90;67.10;;;;;;5056259;28;20082;-74
2021/11/25 01:18:45;;;;;;;0.00;0.00;;;3.90;67.10;;;;;;5054939;28;20039;-74
2021/11/25 01:21:11;;;;;;;0.00;0.00;;;3.90;67.10;;;;;;5056144;28;20115;-75
2021/11/25 01:23:37;;;;;;;0.00;0.00;;;3.90;67.10;;;;;;5055871;28;20446;-74
2021/11/25 01:26:02;;;;;;;0.00;0.00;;;3.90;67.20;;;;;;5056540;28;20036;-74
2021/11/25 01:28:29;;;;;;;0.00;0.00;;;3.90;67.20;;;;;;5055808;28;20474;-74
2021/11/25 01:30:57;;;;;;;0.00;0.00;;;3.90;67.20;;;;;;5055775;28;20029;-74
2021/11/25 01:33:24;;;;;;;0.00;0.00;;;3.80;67.10;;;;;;5054758;28;20029;-74
2021/11/25 01:35:51;;;;;;;0.00;0.00;;;3.80;67.20;;;;;;5055324;28;20534;-74
2021/11/25 01:38:18;;;;;;;0.00;0.00;;;3.70;67.60;;;;;;5055630;28;20028;-75
2021/11/25 01:40:46;;;;;;;0.00;0.00;;;3.80;67.80;;;;;;5055454;28;20090;-74
2021/11/25 01:43:12;;;;;;;0.00;0.00;;;3.70;67.60;;;;;;5054522;28;20421;-74
2021/11/25 01:45:39;;;;;;;0.00;0.00;;;3.70;67.50;;;;;;5049060;28;20064;-75
2021/11/25 01:48:06;;;;;;;0.00;0.00;;;3.70;67.50;;;;;;5049347;28;20434;-74
2021/11/25 01:50:33;;;;;;;0.00;0.00;;;3.60;67.50;;;;;;5055548;28;20036;-75
2021/11/25 01:52:59;;;;;;;0.00;0.00;;;3.60;68.00;;;;;;5055393;28;20107;-74
2021/11/25 01:55:29;;;;;;;0.00;0.00;;;3.60;68.10;;;;;;5054838;28;20057;-74
2021/11/25 01:57:54;;;;;;;0.00;0.00;;;3.60;68.00;;;;;;5055255;28;20032;-73
2021/11/25 02:00:27;;;;;;;0.00;0.00;;;3.50;68.00;;;;;;5055384;28;20445;-74
2021/11/25 02:02:53;;;;;;;0.00;0.00;;;3.50;68.60;;;;;;5055000;28;20029;-74
2021/11/25 02:05:19;;;;;;;0.00;0.00;;;3.40;68.50;;;;;;5055264;28;20028;-73
2021/11/25 02:07:45;;;;;;;0.00;0.00;;;3.40;68.50;;;;;;5055186;28;20459;-75
2021/11/25 02:10:11;;;;;;;0.00;0.00;;;3.40;68.50;;;;;;5055227;28;20029;-75
2021/11/25 02:12:38;;;;;;;0.00;0.00;;;3.40;68.60;;;;;;5054628;28;20036;-75
2021/11/25 02:15:04;;;;;;;0.00;0.00;;;3.40;68.60;;;;;;5055379;28;20115;-75
2021/11/25 02:17:30;;;;;;;0.00;0.00;;;3.40;68.60;;;;;;5055127;28;20060;-75
2021/11/25 02:19:57;;;;;;;0.00;0.00;;;3.30;68.50;;;;;;5054635;28;20462;-75
2021/11/25 02:22:23;;;;;;;0.00;0.00;;;3.30;69.00;;;;;;5055122;28;20470;-74
2021/11/25 02:24:51;;;;;;;0.00;0.00;;;3.30;69.00;;;;;;5054864;28;20032;-75
2021/11/25 02:27:19;;;;;;;0.00;0.00;;;3.40;69.00;;;;;;5054906;28;20378;-75
2021/11/25 02:29:45;;;;;;;0.00;0.00;;;3.40;68.80;;;;;;5055020;28;20031;-75
2021/11/25 02:32:10;;;;;;;0.00;0.00;;;3.40;68.80;;;;;;5054443;28;20394;-75
2021/11/25 02:34:36;;;;;;;0.00;0.00;;;3.40;68.80;;;;;;5055446;28;20025;-75
2021/11/25 02:37:02;;;;;;;0.00;0.00;;;3.40;68.80;;;;;;5054118;28;20494;-75
2021/11/25 02:39:28;;;;;;;0.00;0.00;;;3.40;68.70;;;;;;5054679;28;20099;-74
2021/11/25 02:41:54;;;;;;;0.00;0.00;;;3.40;68.70;;;;;;5053134;28;20041;-75
2021/11/25 02:44:20;;;;;;;0.08;0.08;;;3.50;68.70;;;;;;5054396;28;20029;-75
2021/11/25 02:46:50;;;;;;;0.00;0.00;;;3.50;68.70;;;;;;5054785;28;20401;-75
2021/11/25 02:49:16;;;;;;;0.00;0.00;;;3.50;68.70;;;;;;5054460;28;20075;-74
2021/11/25 02:51:42;;;;;;;0.00;0.00;;;3.50;68.60;;;;;;5054393;28;20033;-75
2021/11/25 02:54:07;;;;;;;0.00;0.00;;;3.60;68.70;;;;;;5054163;28;20033;-75
2021/11/25 02:56:33;;;;;;;0.00;0.00;;;3.70;68.60;;;;;;5054706;28;20033;-75
2021/11/25 02:59:00;;;;;;;0.00;0.00;;;3.70;68.50;;;;;;5053894;28;20417;-75
2021/11/25 03:01:30;;;;;;;0.00;0.00;;;3.70;68.30;;;;;;5054201;28;20118;-75
2021/11/25 03:03:58;;;;;;;0.00;0.00;;;3.80;68.10;;;;;;5054116;28;20036;-75
2021/11/25 03:06:24;;;;;;;0.00;0.00;;;3.80;67.90;;;;;;5054208;28;20033;-75
2021/11/25 03:08:50;;;;;;;0.00;0.00;;;3.80;67.90;;;;;;5054153;28;20036;-75
2021/11/25 03:11:19;;;;;;;0.00;0.00;;;3.80;67.90;;;;;;5054171;28;20037;-74
2021/11/25 03:13:48;;;;;;;0.00;0.00;;;3.80;67.80;;;;;;5053985;28;20496;-74
2021/11/25 03:16:16;;;;;;;0.00;0.00;;;3.80;67.70;;;;;;5054049;28;20032;-74
2021/11/25 03:18:42;;;;;;;0.00;0.00;;;3.80;67.70;;;;;;5053841;28;20474;-74
2021/11/25 03:21:10;;;;;;;0.00;0.00;;;3.80;67.60;;;;;;5053926;28;20033;-74
2021/11/25 03:23:37;;;;;;;0.00;0.00;;;3.80;67.70;;;;;;5053878;28;20025;-74
2021/11/25 03:26:06;;;;;;;0.00;0.00;;;3.80;67.60;;;;;;5054119;28;20064;-74
2021/11/25 03:28:32;;;;;;;0.00;0.00;;;3.80;67.40;;;;;;5053544;28;20409;-74
2021/11/25 03:30:58;;;;;;;0.00;0.00;;;3.80;67.30;;;;;;5053578;28;20060;-74
2021/11/25 03:33:31;;;;;;;0.00;0.00;;;3.90;67.40;;;;;;5053883;28;20504;-74
2021/11/25 03:35:59;;;;;;;0.00;0.00;;;3.90;67.40;;;;;;5053691;28;20118;-74
2021/11/25 03:38:25;;;;;;;0.00;0.00;;;4.00;67.30;;;;;;5053608;28;20021;-74
2021/11/25 03:40:52;;;;;;;0.00;0.00;;;4.00;67.00;;;;;;5052309;28;20029;-74
2021/11/25 03:43:18;;;;;;;0.00;0.00;;;4.00;66.80;;;;;;5053700;28;20059;-74
2021/11/25 03:45:44;;;;;;;0.00;0.00;;;4.00;66.70;;;;;;5053549;28;20032;-75
2021/11/25 03:48:10;;;;;;;0.00;0.00;;;4.00;66.80;;;;;;5053343;28;20075;-75
2021/11/25 03:50:36;;;;;;;0.00;0.00;;;4.00;66.80;;;;;;5053227;28;20025;-74
2021/11/25 03:53:02;;;;;;;0.00;0.00;;;4.10;66.80;;;;;;5053230;28;20362;-74
2021/11/25 03:55:28;;;;;;;0.00;0.00;;;4.10;66.70;;;;;;5053059;28;20100;-74
2021/11/25 03:57:54;;;;;;;0.00;0.00;;;4.10;66.70;;;;;;5052637;28;20131;-74
2021/11/25 04:00:21;;;;;;;0.00;0.00;;;4.10;66.70;;;;;;5053452;28;20029;-75
2021/11/25 04:02:48;;;;;;;0.00;0.00;;;4.10;66.50;;;;;;5053311;28;20033;-75
2021/11/25 04:05:15;;;;;;;0.00;0.00;;;4.10;66.50;;;;;;5052053;28;20481;-74
2021/11/25 04:07:40;;;;;;;0.00;0.00;;;4.10;66.40;;;;;;5053342;28;20029;-74
2021/11/25 04:10:09;;;;;;;0.00;0.00;;;4.10;66.60;;;;;;5053445;28;20032;-74
2021/11/25 04:12:35;;;;;;;0.00;0.00;;;4.10;66.60;;;;;;5053170;28;20029;-74
2021/11/25 04:15:01;;;;;;;0.00;0.00;;;4.10;66.40;;;;;;5053225;28;20029;-74
2021/11/25 04:17:27;;;;;;;0.00;0.00;;;4.10;66.10;;;;;;5053172;28;20033;-74
2021/11/25 04:19:53;;;;;;;0.00;0.00;;;4.00;66.10;;;;;;5053221;28;20044;-74
2021/11/25 04:22:21;;;;;;;0.00;0.00;;;4.00;66.30;;;;;;5053429;28;20048;-74
2021/11/25 04:24:50;;;;;;;0.00;0.00;;;4.00;66.30;;;;;;5053085;28;20112;-75
2021/11/25 04:27:17;;;;;;;0.00;0.00;;;4.10;66.30;;;;;;5051936;28;20360;-74
2021/11/25 04:29:48;;;;;;;0.00;0.00;;;4.10;66.40;;;;;;5053449;28;20036;-75
2021/11/25 04:37:43;;;;;;;0.00;0.00;;;4.20;66.10;;;;;;5053145;28;20103;-75
2021/11/25 04:40:11;;;;;;;0.00;0.00;;;4.20;65.90;;;;;;5052656;28;20450;-75
2021/11/25 04:42:36;;;;;;;0.00;0.00;;;4.20;65.70;;;;;;5051670;28;20029;-75
2021/11/25 04:45:03;;;;;;;0.00;0.00;;;4.20;65.80;;;;;;5051737;28;20075;-75
2021/11/25 04:47:29;;;;;;;0.00;0.00;;;4.20;65.80;;;;;;5052473;28;20471;-75
2021/11/25 04:49:55;;;;;;;0.00;0.00;;;4.20;65.80;;;;;;5053457;28;20073;-75
2021/11/25 04:52:21;;;;;;;0.00;0.00;;;4.20;65.70;;;;;;5052601;28;20044;-74
2021/11/25 04:54:46;;;;;;;0.00;0.00;;;4.20;65.80;;;;;;5051567;28;20473;-75
2021/11/25 04:57:12;;;;;;;0.00;0.00;;;4.20;65.70;;;;;;5052709;28;20036;-75
2021/11/25 04:59:38;;;;;;;0.00;0.00;;;4.20;65.60;;;;;;5052720;28;20032;-75
2021/11/25 05:02:04;;;;;;;0.00;0.00;;;4.20;65.70;;;;;;5051495;28;20037;-76
2021/11/25 05:04:31;;;;;;;0.00;0.00;;;4.20;65.70;;;;;;5052881;28;20048;-76
2021/11/25 05:06:56;;;;;;;0.00;0.00;;;4.20;65.70;;;;;;5052459;28;20588;-75
2021/11/25 05:09:22;;;;;;;0.00;0.00;;;4.20;65.60;;;;;;5056050;28;20049;-76
2021/11/25 05:11:48;;;;;;;0.00;0.00;;;4.20;65.60;;;;;;5056564;28;20033;-79
2021/11/25 05:14:14;;;;;;;0.00;0.00;;;4.30;65.70;;;;;;5055884;28;20457;-77
2021/11/25 05:16:39;;;;;;;0.00;0.00;;;4.20;65.70;;;;;;5056248;28;20031;-76
2021/11/25 05:19:05;;;;;;;0.00;0.00;;;4.20;65.60;;;;;;5056058;28;20048;-76
2021/11/25 05:21:31;;;;;;;0.00;0.00;;;4.20;65.60;;;;;;5056201;28;20367;-76
2021/11/25 05:23:56;;;;;;;0.00;0.00;;;4.30;65.60;;;;;;5055873;28;20029;-76
2021/11/25 05:26:22;;;;;;;0.00;0.00;;;4.30;65.50;;;;;;5055646;28;20459;-75
2021/11/25 05:28:48;;;;;;;0.00;0.00;;;4.30;65.60;;;;;;5056182;28;20036;-74
2021/11/25 05:31:14;;;;;;;0.00;0.00;;;4.30;65.60;;;;;;5055676;28;20132;-76
2021/11/25 05:33:40;;;;;;;0.00;0.00;;;4.30;65.40;;;;;;5056113;28;20029;-77
2021/11/25 05:36:05;;;;;;;0.00;0.00;;;4.30;65.40;;;;;;5055660;28;20505;-75
2021/11/25 05:38:31;;;;;;;0.00;0.00;;;4.30;65.50;;;;;;5054621;28;20035;-74
2021/11/25 05:40:57;;;;;;;0.00;0.00;;;4.30;65.50;;;;;;5055353;28;20472;-75
2021/11/25 05:43:23;;;;;;;0.00;0.00;;;4.30;65.60;;;;;;5055308;28;20025;-74
2021/11/25 05:45:48;;;;;;;0.00;0.00;;;4.30;65.50;;;;;;5054805;28;20032;-74
2021/11/25 05:48:16;;;;;;;0.00;0.00;;;4.30;65.60;;;;;;5055342;28;20025;-76
2021/11/25 05:50:43;;;;;;;0.05;0.05;;;4.30;65.60;;;;;;5055228;28;20078;-75
2021/11/25 05:53:09;;;;;;;0.00;0.00;;;4.40;65.60;;;;;;5053950;28;20075;-75
2021/11/25 05:55:42;;;;;;;0.00;0.00;;;4.40;65.50;;;;;;5054192;28;20374;-75
2021/11/25 05:58:09;;;;;;;0.00;0.00;;;4.50;65.50;;;;;;5055576;28;20043;-75
2021/11/25 06:00:34;;;;;;;0.00;0.00;;;4.60;65.30;;;;;;5055240;28;20116;-75
2021/11/25 06:03:00;;;;;;;0.03;0.00;;;4.60;65.20;;;;;;5054864;28;20100;-75
2021/11/25 06:12:09;;;;;;;0.00;0.00;;;4.70;64.90;;;;;;5035266;28;20064;-75
2021/11/25 06:14:36;;;;;;;0.00;0.00;;;4.70;64.80;;;;;;5035148;28;20391;-75
2021/11/25 06:17:02;;;;;;;0.00;0.00;;;4.70;64.90;;;;;;5034603;28;20033;-75
2021/11/25 06:19:29;;;;;;;0.00;0.00;;;4.70;64.90;;;;;;5033081;28;20080;-75
2021/11/25 06:21:56;;;;;;;0.00;0.00;;;4.80;65.00;;;;;;5034667;28;20025;-76
2021/11/25 06:24:21;;;;;;;0.00;0.00;;;4.80;65.00;;;;;;5049868;28;20042;-74
2021/11/25 06:26:50;;;;;;;0.00;0.00;;;4.90;65.00;;;;;;5034914;28;20042;-75
2021/11/25 06:29:16;;;;;;;0.00;0.00;;;5.00;64.90;;;;;;5033168;28;20026;-75
2021/11/25 06:31:42;;;;;;;0.00;0.00;;;5.10;65.00;;;;;;5034039;28;20395;-76
2021/11/25 06:34:09;;;;;;;0.00;0.00;;;5.10;64.90;;;;;;5045593;28;20040;-76
2021/11/25 06:36:35;;;;;;;0.00;0.00;;;5.30;64.90;;;;;;5054414;28;20055;-75
2021/11/25 06:39:06;;;;;;;0.00;0.00;;;5.40;64.70;;;;;;5054481;28;20029;-75
2021/11/25 06:41:32;;;;;;;0.00;0.00;;;5.50;64.50;;;;;;5054343;28;20044;-75
2021/11/25 06:43:58;;;;;;;0.00;0.00;;;5.70;64.30;;;;;;5054320;28;20033;-75
2021/11/25 06:46:25;;;;;;;0.00;0.00;;;5.70;64.10;;;;;;5053919;28;20041;-75
2021/11/25 06:48:50;;;;;;;0.00;0.00;;;5.70;64.10;;;;;;5054046;28;20462;-75
2021/11/25 06:51:16;;;;;;;0.00;0.00;;;5.80;64.10;;;;;;5052855;28;20028;-75
2021/11/25 06:53:43;;;;;;;0.00;0.00;;;5.90;63.90;;;;;;5054142;28;20025;-75
2021/11/25 06:56:08;;;;;;;0.00;0.00;;;5.90;63.80;;;;;;5054107;28;20386;-75
2021/11/25 06:58:34;;;;;;;0.00;0.00;;;6.00;63.90;;;;;;5053675;28;20029;-76
2021/11/25 07:01:03;;;;;;;0.00;0.00;;;6.10;63.90;;;;;;5054034;28;20048;-75
2021/11/25 07:03:33;;;;;;;0.00;0.00;;;6.20;63.70;;;;;;5053755;28;20033;-75
2021/11/25 07:05:59;;;;;;;0.00;0.00;;;6.20;63.20;;;;;;5053927;28;20056;-75
2021/11/25 07:08:24;;;;;;;0.00;0.00;;;6.30;63.00;;;;;;5053730;28;20053;-75
2021/11/25 07:10:50;;;;;;;0.00;0.00;;;6.40;62.70;;;;;;5048433;28;20108;-75
2021/11/25 07:13:16;;;;;;;0.00;0.00;;;6.40;62.50;;;;;;5053372;28;20029;-75
2021/11/25 07:15:41;;;;;;;0.00;0.00;;;6.50;62.70;;;;;;5053196;28;20100;-75
2021/11/25 07:18:07;;;;;;;0.00;0.00;;;6.50;62.60;;;;;;5053561;28;20021;-75
2021/11/25 07:20:33;;;;;;;0.00;0.00;;;6.60;62.60;;;;;;5053745;28;20032;-74
2021/11/25 07:22:59;;;;;;;0.00;0.00;;;6.70;62.60;;;;;;5053764;28;20025;-75
2021/11/25 07:25:25;;;;;;;0.28;0.00;;;6.80;62.40;;;;;;5053792;28;20378;-74
2021/11/25 07:27:51;;;;;;;0.00;0.00;;;6.80;62.40;;;;;;5053383;28;20025;-74
2021/11/25 07:30:18;;;;;;;0.00;0.00;;;6.90;62.30;;;;;;5053518;28;20338;-74
2021/11/25 07:32:44;;;;;;;0.03;0.00;;;7.00;62.10;;;;;;5052908;28;20039;-77
2021/11/25 07:35:11;;;;;;;0.00;0.00;;;7.10;61.50;;;;;;5053362;28;20078;-75
2021/11/25 07:37:37;;;;;;;0.00;0.00;;;7.20;61.20;;;;;;5053627;28;20173;-74
2021/11/25 07:40:05;;;;;;;0.00;0.00;;;7.20;60.80;;;;;;5053493;28;20025;-75
2021/11/25 07:42:31;;;;;;;0.00;0.00;;;7.20;60.30;;;;;;5053620;28;20111;-75
2021/11/25 07:44:56;;;;;;;0.00;0.00;;;7.20;60.30;;;;;;5053558;28;20096;-78
2021/11/25 07:47:31;;;;;;;0.00;0.00;;;7.20;60.20;;;;;;5053799;28;20037;-75
2021/11/25 07:49:56;;;;;;;0.00;0.00;;;7.20;60.40;;;;;;5053442;28;20036;-75
2021/11/25 07:52:22;;;;;;;0.00;0.00;;;7.20;60.30;;;;;;5053350;28;20037;-75
2021/11/25 07:54:48;;;;;;;0.00;0.00;;;7.20;60.40;;;;;;5053391;28;20032;-75
2021/11/25 07:57:13;;;;;;;0.00;0.00;;;7.20;60.50;;;;;;5053310;28;20099;-75
2021/11/25 07:59:39;;;;;;;0.00;0.00;;;7.30;60.40;;;;;;5052639;28;20079;-75
2021/11/25 08:02:05;;;;;;;0.00;0.00;;;7.30;60.40;;;;;;5051688;28;20127;-75
2021/11/25 08:04:30;;;;;;;0.00;0.00;;;7.40;60.30;;;;;;5053224;28;20086;-75
2021/11/25 08:06:56;;;;;;;0.00;0.00;;;7.50;60.20;;;;;;5052964;28;20124;-75
2021/11/25 08:09:22;;;;;;;0.00;0.00;;;7.50;60.20;;;;;;5051807;28;20036;-74
2021/11/25 08:11:48;;;;;;;0.00;0.00;;;7.50;59.90;;;;;;5052202;28;20486;-74
2021/11/25 08:14:13;;;;;;;0.00;0.00;;;7.50;59.90;;;;;;5052926;28;20033;-75
2021/11/25 08:16:39;;;;;;;0.00;0.00;;;7.50;60.00;;;;;;5052801;28;20112;-75
2021/11/25 08:19:05;;;;;;;0.00;0.00;;;7.50;59.60;;;;;;5052950;28;20531;-75
2021/11/25 08:21:32;;;;;;;0.00;0.00;;;7.60;59.60;;;;;;5052963;28;20029;-75
2021/11/25 08:23:58;;;;;;;0.00;0.00;;;7.50;59.50;;;;;;5053012;28;20021;-74
2021/11/25 08:26:24;;;;;;;0.00;0.00;;;7.50;59.50;;;;;;5052707;28;20037;-75
2021/11/25 08:28:49;;;;;;;0.00;0.00;;;7.60;59.60;;;;;;5053433;28;20025;-75
2021/11/25 08:31:16;;;;;;;0.00;0.00;;;7.60;59.80;;;;;;5051428;28;20036;-75
2021/11/25 08:33:41;;;;;;;0.00;0.00;;;7.60;59.80;;;;;;5052954;28;20444;-75
2021/11/25 08:36:07;;;;;;;0.00;0.00;;;7.70;59.70;;;;;;5051446;28;20077;-75
2021/11/25 08:38:33;;;;;;;0.00;0.00;;;7.70;59.70;;;;;;5052822;28;20072;-75
2021/11/25 08:41:01;;;;;;;0.00;0.00;;;7.80;59.40;;;;;;5052445;28;20017;-75
2021/11/25 08:43:27;;;;;;;0.00;0.00;;;7.80;59.10;;;;;;5054774;28;20036;-75
2021/11/25 08:45:53;;;;;;;0.00;0.00;;;7.90;59.10;;;;;;5055190;28;20166;-74
2021/11/25 08:48:19;;;;;;;0.00;0.00;;;7.90;59.00;;;;;;5056038;28;20021;-75
2021/11/25 08:50:45;;;;;;;0.00;0.00;;;7.80;59.10;;;;;;5056564;28;20030;-76
2021/11/25 08:53:12;;;;;;;0.00;0.00;;;7.90;58.70;;;;;;5056468;28;20108;-77
2021/11/25 08:55:39;;;;;;;0.00;0.00;;;7.90;58.40;;;;;;5056304;28;20112;-75
2021/11/25 08:58:05;;;;;;;0.00;0.00;;;7.90;58.60;;;;;;5056416;28;20025;-75
2021/11/25 09:00:33;;;;;;;0.00;0.00;;;7.90;58.70;;;;;;5055923;28;20052;-75
2021/11/25 09:03:01;;;;;;;0.00;0.00;;;7.90;58.80;;;;;;5055275;28;20041;-75
2021/11/25 09:05:27;;;;;;;0.00;0.00;;;8.00;58.60;;;;;;5052800;28;20382;-75
2021/11/25 09:07:52;;;;;;;0.00;0.00;;;8.00;58.50;;;;;;5055028;28;20025;-76
2021/11/25 09:10:19;;;;;;;0.00;0.00;;;8.00;58.50;;;;;;5054962;28;20033;-77
2021/11/25 09:12:45;;;;;;;0.00;0.00;;;8.00;58.60;;;;;;5055095;28;20147;-75
2021/11/25 09:15:11;;;;;;;0.00;0.00;;;8.00;58.50;;;;;;5054821;28;20433;-75
2021/11/25 09:17:36;;;;;;;0.00;0.00;;;8.10;58.50;;;;;;5055223;28;20028;-76
2021/11/25 09:20:06;;;;;;;0.00;0.00;;;8.20;58.20;;;;;;5053490;28;20075;-75
2021/11/25 09:22:32;;;;;;;0.00;0.00;;;8.20;58.10;;;;;;5053692;28;20120;-76
2021/11/25 09:24:58;;;;;;;0.00;0.00;;;8.30;58.10;;;;;;5054790;28;20139;-76
2021/11/25 09:27:24;;;;;;;0.00;0.00;;;8.30;57.60;;;;;;5054940;28;20443;-76
2021/11/25 09:29:50;;;;;;;0.00;0.00;;;8.40;57.40;;;;;;5054879;28;20025;-76
2021/11/25 09:32:16;;;;;;;0.00;0.00;;;8.40;57.70;;;;;;5053245;28;20031;-76
2021/11/25 09:34:42;;;;;;;0.00;0.00;;;8.50;57.60;;;;;;5054573;28;20053;-76
2021/11/25 09:37:08;;;;;;;0.20;0.00;;;8.50;57.20;;;;;;5054321;28;20496;-76
2021/11/25 09:39:34;;;;;;;0.00;0.00;;;8.40;57.30;;;;;;5054392;28;20437;-73
2021/11/25 09:42:00;;;;;;;0.00;0.00;;;8.50;57.40;;;;;;5054079;28;20098;-76
2021/11/25 09:44:26;;;;;;;0.00;0.00;;;8.50;57.40;;;;;;5050201;28;20021;-75
2021/11/25 09:46:55;;;;;;;0.00;0.00;;;8.60;57.60;;;;;;5053658;28;20021;-76
2021/11/25 09:49:22;;;;;;;0.00;0.00;;;8.60;57.10;;;;;;5053475;28;20029;-77
2021/11/25 09:51:48;;;;;;;0.00;0.00;;;8.70;56.80;;;;;;5053902;28;20406;-75
2021/11/25 09:54:15;;;;;;;0.00;0.00;;;8.70;56.50;;;;;;5051426;28;20484;-75
2021/11/25 09:56:41;;;;;;;0.00;0.00;;;8.90;56.60;;;;;;5053968;28;20025;-75
2021/11/25 09:59:07;;;;;;;0.00;0.00;;;9.10;56.30;;;;;;5051511;28;20044;-75
2021/11/25 10:01:34;;;;;;;0.00;0.00;;;9.40;56.20;;;;;;5053571;28;20213;-75
2021/11/25 10:04:00;;;;;;;0.00;0.00;;;9.50;56.00;;;;;;5054782;28;20477;-74
2021/11/25 10:06:30;;;;;;;0.00;0.00;;;9.70;55.80;;;;;;5053865;28;20320;-74
2021/11/25 10:08:57;;;;;;;0.00;0.00;;;9.90;55.40;;;;;;5053907;28;20104;-76
2021/11/25 10:11:29;;;;;;;0.00;0.00;;;9.90;55.20;;;;;;5036795;28;20044;-75
2021/11/25 10:14:03;;;;;;;0.00;0.00;;;10.00;55.20;;;;;;5055158;28;20029;-75
2021/11/25 10:16:33;;;;;;;0.00;0.00;;;10.10;54.80;;;;;;5054819;28;20028;-75
2021/11/25 10:19:08;;;;;;;0.00;0.00;;;10.00;53.90;;;;;;5055111;28;20102;-74
2021/11/25 10:21:52;;;;;;;0.00;0.00;;;9.90;53.50;;;;;;5054741;28;20033;-74
2021/11/25 10:24:35;;;;;;;0.00;0.00;;;9.70;53.80;;;;;;5054411;28;20029;-75
2021/11/25 10:27:17;;;;;;;0.00;0.00;;;9.50;54.10;;;;;;5054649;28;20028;-74
2021/11/25 10:29:44;;;;;;;0.00;0.00;;;9.40;54.20;;;;;;5053105;28;20033;-75
2021/11/25 10:32:18;;;;;;;0.00;0.00;;;9.40;54.50;;;;;;5053272;28;20044;-75
2021/11/25 10:35:05;;;;;;;0.00;0.00;;;9.40;54.50;;;;;;5052601;28;20495;-78
2021/11/25 10:37:54;;;;;;;0.00;0.00;;;9.40;54.50;;;;;;5033314;28;20041;-76
2021/11/25 10:40:28;;;;;;;0.10;0.00;;;9.40;54.30;;;;;;5047765;28;20025;-76
2021/11/25 10:42:53;;;;;;;0.00;0.00;;;9.40;54.20;;;;;;5054271;28;20489;-75
2021/11/25 10:45:20;;;;;;;0.00;0.00;;;9.40;53.90;;;;;;5054396;28;20075;-76
2021/11/25 10:47:58;;;;;;;0.00;0.00;;;9.30;53.50;;;;;;5054196;28;20336;-76
2021/11/25 10:50:24;;;;;;;0.00;0.00;;;9.30;53.80;;;;;;5053392;28;20033;-76
2021/11/25 10:52:51;;;;;;;0.00;0.00;;;9.30;54.10;;;;;;5054168;28;20416;-75
2021/11/25 10:55:18;;;;;;;0.00;0.00;;;9.30;54.30;;;;;;5054138;28;20031;-76
2021/11/25 10:57:51;;;;;;;0.00;0.00;;;9.40;54.00;;;;;;5054323;28;20024;-75
2021/11/25 11:00:24;;;;;;;0.00;0.00;;;9.40;54.00;;;;;;5054017;28;20021;-77
2021/11/25 11:03:13;;;;;;;0.00;0.00;;;9.50;54.10;;;;;;5054091;28;20025;-74
2021/11/25 11:05:46;;;;;;;0.00;0.00;;;9.60;54.10;;;;;;5054107;28;20029;-75
2021/11/25 11:08:13;;;;;;;0.00;0.00;;;9.70;54.10;;;;;;5053915;28;20035;-75
2021/11/25 11:10:59;;;;;;;0.00;0.00;;;9.70;53.80;;;;;;5053957;28;20466;-75
2021/11/25 11:18:57;;;;;;;0.00;0.00;;;9.60;53.20;;;;;;5049624;28;20033;-75
2021/11/25 11:21:47;;;;;;;0.00;0.00;;;9.50;52.50;;;;;;5033969;28;20530;-75
2021/11/25 11:24:18;;;;;;;0.00;0.00;;;9.50;52.50;;;;;;5047926;28;20040;-76
2021/11/25 11:26:49;;;;;;;0.00;0.00;;;9.40;52.50;;;;;;5052483;28;20059;-75
2021/11/25 11:29:17;;;;;;;0.00;0.00;;;9.40;51.80;;;;;;5052234;28;20167;-74
2021/11/25 11:31:45;;;;;;;0.00;0.00;;;9.40;51.40;;;;;;5053703;28;20116;-76
2021/11/25 11:34:12;;;;;;;0.00;0.00;;;9.30;51.10;;;;;;5052372;28;20064;-76
2021/11/25 11:36:40;;;;;;;0.00;0.00;;;9.20;50.90;;;;;;5053647;28;20399;-76
2021/11/25 11:39:07;;;;;;;0.00;0.00;;;9.00;50.80;;;;;;5053503;28;20378;-75
2021/11/25 11:41:33;;;;;;;0.00;0.00;;;8.90;50.80;;;;;;5053235;28;20494;-76
2021/11/25 11:44:01;;;;;;;0.00;0.00;;;8.80;51.00;;;;;;5053630;28;20116;-76
2021/11/25 11:46:28;;;;;;;0.00;0.00;;;8.80;51.10;;;;;;5052937;28;20033;-77
2021/11/25 11:48:57;;;;;;;0.00;0.00;;;8.70;51.00;;;;;;5053641;28;20343;-76
2021/11/25 11:51:22;;;;;;;0.00;0.00;;;8.60;51.20;;;;;;5053180;28;20048;-76
2021/11/25 11:53:56;;;;;;;0.00;0.00;;;8.50;51.30;;;;;;5053378;28;20462;-76
2021/11/25 11:56:43;;;;;;;0.00;0.00;;;8.40;51.60;;;;;;5053246;28;20024;-77
2021/11/25 11:59:11;;;;;;;0.00;0.00;;;8.30;51.90;;;;;;5053342;28;20025;-77
2021/11/25 12:01:38;;;;;;;0.00;0.00;;;8.30;52.10;;;;;;5053370;28;20087;-77
2021/11/25 12:04:06;;;;;;;0.00;0.00;;;8.30;52.00;;;;;;5053220;28;20028;-76
2021/11/25 12:06:35;;;;;;;0.00;0.00;;;8.30;52.10;;;;;;5051749;28;20466;-76
2021/11/25 12:09:12;;;;;;;0.00;0.00;;;8.30;52.00;;;;;;5051522;28;20489;-76
2021/11/25 12:11:51;;;;;;;0.00;0.00;;;8.40;52.10;;;;;;5051806;28;20029;-76
2021/11/25 12:14:25;;;;;;;0.00;0.00;;;8.40;52.20;;;;;;5051860;28;20039;-77
2021/11/25 12:17:07;;;;;;;0.00;0.00;;;8.40;52.80;;;;;;5053058;28;20482;-76
2021/11/25 12:19:39;;;;;;;0.00;0.00;;;8.40;52.40;;;;;;5056752;28;20037;-76
2021/11/25 12:22:14;;;;;;;0.00;0.00;;;8.40;52.30;;;;;;5056881;28;20336;-76
2021/11/25 12:24:40;;;;;;;;;;;8.40;52.40;;;;;;5057461;28;20455;-77
2021/11/25 12:27:26;;;;;;;0.00;0.00;;;8.40;52.40;;;;;;5056702;28;19979;-75
2021/11/25 12:30:03;;;;;;;0.00;0.00;;;8.40;52.40;;;;;;5056766;28;20417;-77
2021/11/25 12:32:55;;;;;;;0.00;0.00;;;8.40;52.20;;;;;;5056611;28;20481;-75
2021/11/25 12:35:42;;;;;;;0.00;0.00;;;8.40;52.00;;;;;;5056300;28;20120;-78
2021/11/25 12:38:13;;;;;;;0.00;0.00;;;8.50;52.10;;;;;;5056715;28;20518;-77
2021/11/25 12:41:01;;;;;;;0.00;0.00;;;8.50;52.20;;;;;;5055210;28;20040;-76
2021/11/25 12:43:29;;;;;;;0.10;0.10;;;8.40;52.20;;;;;;5056536;28;20094;-75
2021/11/25 12:46:07;;;;;;;0.00;0.00;;;8.40;52.40;;;;;;5054981;28;20033;-76
2021/11/25 12:48:37;;;;;;;0.00;0.00;;;8.30;52.30;;;;;;5053188;28;20021;-75
2021/11/25 12:51:04;;;;;;;0.00;0.00;;;8.20;52.50;;;;;;5056242;28;20044;-74
2021/11/25 12:53:39;;;;;;;0.00;0.00;;;8.10;52.60;;;;;;5055648;28;20520;-75
2021/11/25 12:56:10;;;;;;;0.00;0.00;;;8.00;53.00;;;;;;5056008;28;20021;-76
2021/11/25 12:58:40;;;;;;;0.00;0.00;;;8.00;53.10;;;;;;5053877;28;20029;-75
2021/11/25 13:01:10;;;;;;;0.00;0.00;;;7.90;53.30;;;;;;5056254;28;20017;-77
2021/11/25 13:03:36;;;;;;;0.00;0.00;;;7.90;53.50;;;;;;5056146;28;20021;-77
2021/11/25 13:06:02;;;;;;;0.00;0.00;;;7.80;53.60;;;;;;5056425;28;20109;-75
2021/11/25 13:08:38;;;;;;;0.00;0.00;;;7.80;53.60;;;;;;5055857;28;20047;-76
2021/11/25 13:11:18;;;;;;;0.00;0.00;;;7.70;53.50;;;;;;5053190;28;20064;-76
2021/11/25 13:13:46;;;;;;;0.00;0.00;;;7.60;53.40;;;;;;5052091;28;20034;-76
2021/11/25 13:16:15;;;;;;;0.00;0.00;;;7.50;53.50;;;;;;5055445;28;20021;-75
2021/11/25 13:19:00;;;;;;;0.00;0.00;;;7.40;53.50;;;;;;5053190;28;20466;-76